AWG-1

METAR EHMA TAF EHLW
8 °C
°C
-
°C
12m
Age
12:07:28
LT
11:07
UTC
0 ft

1,000

2,000

3,000

4,000

5,000

FEW 2,100
SCT 2,500
VFR
<?= Yii::t('app', 'Wind direction') ?> <?= Yii::t('app', 'of'); ?>
360°
17:25
Sunset
71%
Humidity
Wind shear
Closed/Snow
RWY visual range
RWY condition
Vert. visibility
Min. visibility
CAVOK
Trend
Correction
Special report
1038 hPa
QNH
METAR EHMA 051055Z AUTO 36033KT 9999 FEW021 SCT025 08/03 Q1038
Scattered clouds
0 kt
0 kt
12:00
UNKN
20 kt
13:00
UNKN
20 kt
14:00
UNKN
20 kt
15:00
UNKN
20 kt
16:00
UNKN
20 kt
17:00
UNKN
20 kt
18:00
UNKN
10 kt
10 km+
Visibility
None
Ceiling
33 kt
Wind
metar-taf.com/EHMA

Metar-Taf.com

Visual decoder

We and third parties follow your internet behavior on our website with cookies. If you continue, we assume you agree with our cookie policy.